Time;durP1;ratioP1;P1;durP2;ratioP2;P2;SDS_P1;SDS_P2;PMS_P1;PMS_P2;Temp;Humidity;BMP_temperature;BMP_pressure;BME280_temperature;BME280_humidity;BME280_pressure;Samples;Min_cycle;Max_cycle;Signal;HPM_P1;HPM_P2
2023/11/14 00:01:12;;;;;;;;;;;;;;;;;;4941647;29;19911;-82
2023/11/14 00:03:38;;;;;;;;;;;;;;;;;;4942137;29;20463;-81
2023/11/14 00:06:04;;;;;;;;;;;;;;;;;;4942555;29;19922;-81
2023/11/14 00:08:30;;;;;;;;;;;;;;;;;;4925668;29;20294;-81
2023/11/14 00:10:59;;;;;;;;;;;;;;;;;;4926069;29;19915;-81
2023/11/14 00:13:24;;;;;;;;;;;;;;;;;;4927919;29;19915;-82
2023/11/14 00:15:53;;;;;;;;;;;;;;;;;;4926953;29;19938;-82
2023/11/14 00:18:23;;;;;;;;;;;;;;;;;;4941347;29;19938;-82
2023/11/14 00:20:49;;;;;;;;;;;;;;;;;;4957450;28;20365;-82
2023/11/14 00:23:17;;;;;;;;;;;;;;;;;;4964025;28;19914;-83
2023/11/14 00:25:46;;;;;;;;;;;;;;;;;;4965495;28;19937;-80
2023/11/14 00:28:12;;;;;;;;;;;;;;;;;;4964770;28;19941;-81
2023/11/14 00:30:39;;;;;;;;;;;;;;;;;;4964757;28;19962;-82
2023/11/14 00:33:05;;;;;;;;;;;;;;;;;;4963481;28;19914;-81
2023/11/14 00:35:30;;;;;;;;;;;;;;;;;;4964110;28;20004;-82
2023/11/14 00:37:56;;;;;;;;;;;;;;;;;;4963998;28;19915;-80
2023/11/14 00:40:22;;;;;;;;;;;;;;;;;;4964418;28;19914;-81
2023/11/14 00:42:48;;;;;;;;;;;;;;;;;;4962975;28;19914;-82
2023/11/14 00:45:16;;;;;;;;;;;;;;;;;;4980736;28;19921;-81
2023/11/14 00:47:45;;;;;;;;;;;;;;;;;;4980090;28;19914;-81
2023/11/14 00:50:12;;;;;;;;;;;;;;;;;;4981292;28;19914;-81
2023/11/14 00:52:39;;;;;;;;;;;;;;;;;;4980982;28;20354;-81
2023/11/14 00:55:06;;;;;;;;;;;;;;;;;;4965527;28;19918;-82
2023/11/14 00:57:32;;;;;;;;;;;;;;;;;;4969838;28;19910;-82
2023/11/14 01:00:00;;;;;;;;;;;;;;;;;;4974537;28;19914;-81
2023/11/14 01:02:26;;;;;;;;;;;;;;;;;;4971558;28;19996;-82
2023/11/14 01:04:52;;;;;;;;;;;;;;;;;;4971194;28;19914;-81
2023/11/14 01:07:18;;;;;;;;;;;;;;;;;;4969920;28;20400;-81
2023/11/14 01:09:47;;;;;;;;;;;;;;;;;;4970816;28;19921;-80
2023/11/14 01:12:14;;;;;;;;;;;;;;;;;;4971450;28;19910;-80
2023/11/14 01:14:41;;;;;;;;;;;;;;;;;;4986037;28;19914;-81
2023/11/14 01:17:07;;;;;;;;;;;;;;;;;;4971014;28;19960;-79
2023/11/14 01:19:34;;;;;;;;;;;;;;;;;;4971595;28;19914;-80
2023/11/14 01:22:00;;;;;;;;;;;;;;;;;;4951884;29;19910;-80
2023/11/14 01:24:34;;;;;;;;;;;;;;;;;;4949959;29;19915;-80
2023/11/14 01:27:02;;;;;;;;;;;;;;;;;;4948721;29;20530;-80
2023/11/14 01:29:28;;;;;;;;;;;;;;;;;;4949180;29;19910;-80
2023/11/14 01:31:55;;;;;;;;;;;;;;;;;;4947106;29;19938;-81
2023/11/14 01:34:25;;;;;;;;;;;;;;;;;;4965769;29;19910;-81
2023/11/14 01:36:55;;;;;;;;;;;;;;;;;;4952552;29;19973;-81
2023/11/14 01:39:21;;;;;;;;;;;;;;;;;;4954487;29;20393;-82
2023/11/14 01:41:51;;;;;;;;;;;;;;;;;;4968116;28;19953;-80
2023/11/14 01:44:17;;;;;;;;;;;;;;;;;;4951992;29;19915;-81
2023/11/14 01:46:44;;;;;;;;;;;;;;;;;;4948490;29;19926;-80
2023/11/14 01:49:16;;;;;;;;;;;;;;;;;;4965952;29;19917;-80
2023/11/14 01:51:43;;;;;;;;;;;;;;;;;;4948925;29;20013;-82
2023/11/14 01:54:14;;;;;;;;;;;;;;;;;;4949623;29;20006;-81
2023/11/14 01:56:40;;;;;;;;;;;;;;;;;;4948716;29;19915;-82
2023/11/14 01:59:07;;;;;;;;;;;;;;;;;;4946739;29;19921;-82
2023/11/14 02:01:33;;;;;;;;;;;;;;;;;;4962858;29;19917;-82
2023/11/14 02:04:00;;;;;;;;;;;;;;;;;;4965639;28;19942;-82
2023/11/14 02:06:27;;;;;;;;;;;;;;;;;;4963452;28;19946;-81
2023/11/14 02:08:54;;;;;;;;;;;;;;;;;;4948303;29;19915;-79
2023/11/14 02:11:21;;;;;;;;;;;;;;;;;;4948525;29;19918;-80
2023/11/14 02:13:48;;;;;;;;;;;;;;;;;;4964517;28;20393;-80
2023/11/14 02:16:14;;;;;;;;;;;;;;;;;;4964797;28;19919;-82
2023/11/14 02:18:40;;;;;;;;;;;;;;;;;;4964059;29;19914;-81
2023/11/14 02:21:07;;;;;;;;;;;;;;;;;;4948537;29;19911;-80
2023/11/14 02:23:33;;;;;;;;;;;;;;;;;;4947699;29;19960;-82
2023/11/14 02:26:01;;;;;;;;;;;;;;;;;;4963435;28;19961;-80
2023/11/14 02:28:26;;;;;;;;;;;;;;;;;;4964743;29;19919;-79
2023/11/14 02:30:55;;;;;;;;;;;;;;;;;;4948754;29;19911;-79
2023/11/14 02:33:21;;;;;;;;;;;;;;;;;;4948584;29;19922;-81
2023/11/14 02:35:48;;;;;;;;;;;;;;;;;;4949148;29;19911;-80
2023/11/14 02:38:15;;;;;;;;;;;;;;;;;;4947910;29;19919;-79
2023/11/14 02:40:40;;;;;;;;;;;;;;;;;;4947893;29;19974;-80
2023/11/14 02:43:10;;;;;;;;;;;;;;;;;;4963334;28;19942;-79
2023/11/14 02:45:37;;;;;;;;;;;;;;;;;;4948065;29;19910;-81
2023/11/14 02:48:04;;;;;;;;;;;;;;;;;;4948688;29;19919;-81
2023/11/14 02:50:36;;;;;;;;;;;;;;;;;;4964071;29;19934;-81
2023/11/14 02:53:03;;;;;;;;;;;;;;;;;;4949499;29;19918;-81
2023/11/14 02:55:30;;;;;;;;;;;;;;;;;;4948222;29;20005;-79
2023/11/14 02:57:59;;;;;;;;;;;;;;;;;;4948602;29;19915;-81
2023/11/14 03:00:29;;;;;;;;;;;;;;;;;;4947197;29;19955;-80
2023/11/14 03:02:56;;;;;;;;;;;;;;;;;;4948036;29;19915;-80
2023/11/14 03:05:21;;;;;;;;;;;;;;;;;;4948412;29;19914;-79
2023/11/14 03:07:52;;;;;;;;;;;;;;;;;;4948408;29;19915;-81
2023/11/14 03:10:22;;;;;;;;;;;;;;;;;;4948583;29;19919;-80
2023/11/14 03:12:48;;;;;;;;;;;;;;;;;;4962713;29;19914;-80
2023/11/14 03:15:15;;;;;;;;;;;;;;;;;;4962873;28;19915;-79
2023/11/14 03:17:42;;;;;;;;;;;;;;;;;;4963169;29;19914;-81
2023/11/14 03:20:09;;;;;;;;;;;;;;;;;;4949955;28;20362;-79
2023/11/14 03:22:40;;;;;;;;;;;;;;;;;;4965603;28;19921;-80
2023/11/14 03:25:09;;;;;;;;;;;;;;;;;;4968016;28;20093;-81
2023/11/14 03:27:37;;;;;;;;;;;;;;;;;;4965781;28;19929;-82
2023/11/14 03:30:02;;;;;;;;;;;;;;;;;;4969454;28;19914;-79
2023/11/14 03:32:30;;;;;;;;;;;;;;;;;;4968076;28;20378;-80
2023/11/14 03:34:56;;;;;;;;;;;;;;;;;;4984291;28;19945;-79
2023/11/14 03:37:22;;;;;;;;;;;;;;;;;;4969019;28;19914;-80
2023/11/14 03:39:50;;;;;;;;;;;;;;;;;;4966842;28;19917;-81
2023/11/14 03:42:16;;;;;;;;;;;;;;;;;;4982286;28;19914;-80
2023/11/14 03:44:42;;;;;;;;;;;;;;;;;;4966524;28;19921;-81
2023/11/14 03:47:11;;;;;;;;;;;;;;;;;;4966922;28;19952;-82
2023/11/14 03:49:36;;;;;;;;;;;;;;;;;;4983794;28;19914;-79
2023/11/14 03:52:02;;;;;;;;;;;;;;;;;;4968443;28;20404;-81
2023/11/14 03:54:28;;;;;;;;;;;;;;;;;;4973688;28;19941;-81
2023/11/14 03:56:54;;;;;;;;;;;;;;;;;;4986062;28;19914;-81
2023/11/14 03:59:24;;;;;;;;;;;;;;;;;;4968468;28;19964;-82
2023/11/14 04:01:51;;;;;;;;;;;;;;;;;;4968040;28;19938;-80
2023/11/14 04:04:17;;;;;;;;;;;;;;;;;;4967372;28;20008;-81
2023/11/14 04:06:45;;;;;;;;;;;;;;;;;;4981611;28;19922;-81
2023/11/14 04:09:12;;;;;;;;;;;;;;;;;;4966333;28;19917;-82
2023/11/14 04:11:38;;;;;;;;;;;;;;;;;;4980717;28;20370;-81
2023/11/14 04:14:04;;;;;;;;;;;;;;;;;;4963419;28;19924;-82
2023/11/14 04:16:31;;;;;;;;;;;;;;;;;;4980163;28;19937;-79
2023/11/14 04:18:56;;;;;;;;;;;;;;;;;;4962743;28;20346;-82
2023/11/14 04:21:24;;;;;;;;;;;;;;;;;;4953065;29;19914;-81
2023/11/14 04:23:49;;;;;;;;;;;;;;;;;;4948521;29;19914;-80
2023/11/14 04:26:17;;;;;;;;;;;;;;;;;;4961909;28;19911;-82
2023/11/14 04:28:43;;;;;;;;;;;;;;;;;;4944785;29;19985;-82
2023/11/14 04:31:10;;;;;;;;;;;;;;;;;;4943757;28;20001;-80
2023/11/14 04:33:37;;;;;;;;;;;;;;;;;;4965439;28;19917;-82
2023/11/14 04:36:04;;;;;;;;;;;;;;;;;;4949429;29;19918;-81
2023/11/14 04:38:33;;;;;;;;;;;;;;;;;;4947386;29;20013;-81
2023/11/14 04:40:59;;;;;;;;;;;;;;;;;;4949824;29;20334;-81
2023/11/14 04:43:26;;;;;;;;;;;;;;;;;;4966035;28;19995;-81
2023/11/14 04:45:54;;;;;;;;;;;;;;;;;;4948292;29;20298;-80
2023/11/14 04:48:21;;;;;;;;;;;;;;;;;;4962935;28;19915;-82
2023/11/14 04:50:48;;;;;;;;;;;;;;;;;;4962402;29;19975;-82
2023/11/14 04:53:13;;;;;;;;;;;;;;;;;;4946042;29;19950;-80
2023/11/14 04:55:39;;;;;;;;;;;;;;;;;;4948035;29;19929;-82
2023/11/14 04:58:08;;;;;;;;;;;;;;;;;;4948434;29;19921;-83
2023/11/14 05:00:34;;;;;;;;;;;;;;;;;;4962122;29;19977;-81
2023/11/14 05:03:05;;;;;;;;;;;;;;;;;;4964036;29;19946;-80
2023/11/14 05:05:30;;;;;;;;;;;;;;;;;;4951624;29;20012;-80
2023/11/14 05:07:58;;;;;;;;;;;;;;;;;;4965330;29;19914;-81
2023/11/14 05:10:25;;;;;;;;;;;;;;;;;;4950490;29;19977;-81
2023/11/14 05:12:53;;;;;;;;;;;;;;;;;;4950650;29;19952;-81
2023/11/14 05:15:20;;;;;;;;;;;;;;;;;;4948718;29;19914;-82
2023/11/14 05:17:54;;;;;;;;;;;;;;;;;;4966530;28;19917;-82
2023/11/14 05:20:19;;;;;;;;;;;;;;;;;;4955172;28;19914;-80
2023/11/14 05:22:45;;;;;;;;;;;;;;;;;;4990342;28;19914;-80
2023/11/14 05:25:10;;;;;;;;;;;;;;;;;;4976678;28;19924;-82
2023/11/14 05:27:36;;;;;;;;;;;;;;;;;;4974876;28;19918;-81
2023/11/14 05:30:09;;;;;;;;;;;;;;;;;;4989089;28;20351;-80
2023/11/14 05:32:34;;;;;;;;;;;;;;;;;;4975183;28;19918;-82
2023/11/14 05:35:00;;;;;;;;;;;;;;;;;;4976857;28;19948;-82
2023/11/14 05:37:25;;;;;;;;;;;;;;;;;;4973550;28;19921;-82
2023/11/14 05:39:51;;;;;;;;;;;;;;;;;;4976353;28;19914;-81
2023/11/14 05:42:16;;;;;;;;;;;;;;;;;;4975325;28;19914;-82
2023/11/14 05:44:43;;;;;;;;;;;;;;;;;;4989724;28;19978;-80
2023/11/14 05:47:09;;;;;;;;;;;;;;;;;;4970215;28;19919;-80
2023/11/14 05:49:38;;;;;;;;;;;;;;;;;;4966955;28;19914;-80
2023/11/14 05:52:03;;;;;;;;;;;;;;;;;;4966288;28;19914;-80
2023/11/14 05:54:29;;;;;;;;;;;;;;;;;;4965501;28;19918;-81
2023/11/14 05:56:54;;;;;;;;;;;;;;;;;;4967238;28;19969;-81
2023/11/14 05:59:20;;;;;;;;;;;;;;;;;;4967641;28;19915;-80
2023/11/14 06:01:48;;;;;;;;;;;;;;;;;;4966848;28;19910;-82
2023/11/14 06:04:14;;;;;;;;;;;;;;;;;;4965930;28;19961;-80
2023/11/14 06:06:39;;;;;;;;;;;;;;;;;;4965259;28;19953;-82
2023/11/14 06:09:09;;;;;;;;;;;;;;;;;;4966072;28;20345;-82
2023/11/14 06:11:36;;;;;;;;;;;;;;;;;;4966189;28;19979;-81
2023/11/14 06:14:01;;;;;;;;;;;;;;;;;;4965493;28;19910;-82
2023/11/14 06:16:29;;;;;;;;;;;;;;;;;;4965614;28;19920;-81
2023/11/14 06:18:55;;;;;;;;;;;;;;;;;;4965261;28;19911;-80
2023/11/14 06:21:22;;;;;;;;;;;;;;;;;;4985234;28;19953;-81
2023/11/14 06:23:48;;;;;;;;;;;;;;;;;;4945417;29;19965;-83
2023/11/14 06:26:14;;;;;;;;;;;;;;;;;;4962101;28;19954;-81
2023/11/14 06:28:40;;;;;;;;;;;;;;;;;;4945631;29;19919;-81
2023/11/14 06:31:06;;;;;;;;;;;;;;;;;;4944829;29;19940;-82
2023/11/14 06:33:33;;;;;;;;;;;;;;;;;;4945617;29;19918;-81
2023/11/14 06:35:59;;;;;;;;;;;;;;;;;;4944999;29;20278;-81
2023/11/14 06:38:25;;;;;;;;;;;;;;;;;;4946502;29;20354;-82
2023/11/14 06:40:51;;;;;;;;;;;;;;;;;;4964290;28;19915;-81
2023/11/14 06:43:18;;;;;;;;;;;;;;;;;;4947760;29;19914;-81
2023/11/14 06:45:43;;;;;;;;;;;;;;;;;;4944680;29;19949;-80
2023/11/14 06:48:09;;;;;;;;;;;;;;;;;;4946112;29;19918;-81
2023/11/14 06:50:35;;;;;;;;;;;;;;;;;;4945328;29;19919;-81
2023/11/14 06:53:01;;;;;;;;;;;;;;;;;;4945021;29;19926;-82
2023/11/14 06:55:26;;;;;;;;;;;;;;;;;;4943372;29;19914;-80
2023/11/14 06:57:52;;;;;;;;;;;;;;;;;;4944049;29;20061;-81
2023/11/14 07:00:18;;;;;;;;;;;;;;;;;;4944921;29;19914;-80
2023/11/14 07:02:45;;;;;;;;;;;;;;;;;;4946274;29;19914;-82
2023/11/14 07:05:11;;;;;;;;;;;;;;;;;;4946599;29;19926;-81
2023/11/14 07:07:39;;;;;;;;;;;;;;;;;;4943934;29;19914;-81
2023/11/14 07:10:05;;;;;;;;;;;;;;;;;;4946006;29;19918;-81
2023/11/14 07:12:30;;;;;;;;;;;;;;;;;;4961266;29;19993;-80
2023/11/14 07:14:56;;;;;;;;;;;;;;;;;;4945850;29;19925;-80
2023/11/14 07:17:22;;;;;;;;;;;;;;;;;;4945417;29;19921;-80
2023/11/14 07:19:48;;;;;;;;;;;;;;;;;;4945465;29;19914;-82
2023/11/14 07:22:13;;;;;;;;;;;;;;;;;;4963783;28;19920;-81
2023/11/14 07:24:39;;;;;;;;;;;;;;;;;;4964379;28;19910;-82
2023/11/14 07:27:06;;;;;;;;;;;;;;;;;;4965328;28;19933;-82
2023/11/14 07:29:32;;;;;;;;;;;;;;;;;;4965298;28;19921;-80
2023/11/14 07:31:58;;;;;;;;;;;;;;;;;;4964509;28;20297;-81
2023/11/14 07:34:25;;;;;;;;;;;;;;;;;;4963998;28;19914;-82
2023/11/14 07:36:50;;;;;;;;;;;;;;;;;;4965952;28;19922;-82
2023/11/14 07:39:17;;;;;;;;;;;;;;;;;;4965246;28;20328;-82
2023/11/14 07:41:44;;;;;;;;;;;;;;;;;;4967283;28;19925;-81
2023/11/14 07:44:09;;;;;;;;;;;;;;;;;;4983576;28;19969;-81
2023/11/14 07:46:38;;;;;;;;;;;;;;;;;;4966448;28;19914;-80
2023/11/14 07:49:03;;;;;;;;;;;;;;;;;;4965974;28;19914;-80
2023/11/14 07:51:29;;;;;;;;;;;;;;;;;;4967205;28;19914;-80
2023/11/14 07:54:00;;;;;;;;;;;;;;;;;;4974088;28;19935;-83
2023/11/14 07:56:26;;;;;;;;;;;;;;;;;;4970788;28;19942;-82
2023/11/14 07:59:08;;;;;;;;;;;;;;;;;;4973377;28;19914;-82
2023/11/14 08:01:39;;;;;;;;;;;;;;;;;;4987741;28;20385;-82
2023/11/14 08:04:10;;;;;;;;;;;;;;;;;;4957506;28;19914;-82
2023/11/14 08:06:39;;;;;;;;;;;;;;;;;;4955420;28;19982;-82
2023/11/14 08:09:05;;;;;;;;;;;;;;;;;;4969694;28;19917;-80
2023/11/14 08:11:32;;;;;;;;;;;;;;;;;;4972380;28;19918;-82
2023/11/14 08:14:14;;;;;;;;;;;;;;;;;;4990205;28;19917;-83
2023/11/14 08:17:05;;;;;;;;;;;;;;;;;;4988832;28;19914;-83
2023/11/14 08:20:03;;;;;;;;;;;;;;;;;;4985918;28;19936;-83
2023/11/14 08:22:30;;;;;;;;;;;;;;;;;;4971104;28;19945;-83
2023/11/14 08:25:04;;;;;;;;;;;;;;;;;;4987922;28;19914;-82
2023/11/14 08:27:38;;;;;;;;;;;;;;;;;;4986757;28;19925;-83
2023/11/14 08:30:05;;;;;;;;;;;;;;;;;;4970329;28;19925;-83
2023/11/14 08:32:38;;;;;;;;;;;;;;;;;;4987289;28;19918;-80
2023/11/14 08:35:09;;;;;;;;;;;;;;;;;;4985440;28;19920;-81
2023/11/14 08:37:38;;;;;;;;;;;;;;;;;;4969033;28;20365;-82
2023/11/14 08:40:04;;;;;;;;;;;;;;;;;;4969148;28;19933;-81
2023/11/14 08:42:29;;;;;;;;;;;;;;;;;;4968152;28;19915;-81
2023/11/14 08:44:58;;;;;;;;;;;;;;;;;;4950998;28;20365;-82
2023/11/14 08:47:24;;;;;;;;;;;;;;;;;;4980290;28;20401;-80
2023/11/14 08:49:50;;;;;;;;;;;;;;;;;;4965152;28;19918;-81
2023/11/14 08:52:19;;;;;;;;;;;;;;;;;;4965347;28;19914;-80
2023/11/14 08:54:45;;;;;;;;;;;;;;;;;;4964834;28;19918;-82
2023/11/14 08:57:11;;;;;;;;;;;;;;;;;;4964338;28;19938;-82
2023/11/14 08:59:36;;;;;;;;;;;;;;;;;;4964811;28;19914;-82
2023/11/14 09:02:02;;;;;;;;;;;;;;;;;;4967474;28;19914;-80
2023/11/14 09:04:29;;;;;;;;;;;;;;;;;;4966161;28;19917;-81
2023/11/14 09:06:55;;;;;;;;;;;;;;;;;;4982573;28;19922;-82
2023/11/14 09:09:21;;;;;;;;;;;;;;;;;;4966747;28;19914;-80
2023/11/14 09:11:47;;;;;;;;;;;;;;;;;;4965365;28;19914;-81
2023/11/14 09:14:13;;;;;;;;;;;;;;;;;;4963870;28;19953;-82
2023/11/14 09:16:40;;;;;;;;;;;;;;;;;;4980509;28;19914;-81
2023/11/14 09:19:06;;;;;;;;;;;;;;;;;;4969062;28;19925;-82
2023/11/14 09:21:32;;;;;;;;;;;;;;;;;;4952437;28;19955;-82
2023/11/14 09:23:58;;;;;;;;;;;;;;;;;;4946689;29;19910;-80
2023/11/14 09:26:25;;;;;;;;;;;;;;;;;;4932476;29;19919;-80
2023/11/14 09:28:53;;;;;;;;;;;;;;;;;;4931262;29;20370;-81
2023/11/14 09:31:20;;;;;;;;;;;;;;;;;;4931227;29;20396;-81
2023/11/14 09:33:49;;;;;;;;;;;;;;;;;;4930481;29;19918;-83
2023/11/14 09:36:15;;;;;;;;;;;;;;;;;;4929431;29;20006;-82
2023/11/14 09:38:40;;;;;;;;;;;;;;;;;;4930933;29;19938;-81
2023/11/14 09:41:06;;;;;;;;;;;;;;;;;;4929731;29;19910;-83
2023/11/14 09:43:32;;;;;;;;;;;;;;;;;;4928949;29;19964;-80
2023/11/14 09:45:59;;;;;;;;;;;;;;;;;;4930503;29;19921;-81
2023/11/14 09:48:29;;;;;;;;;;;;;;;;;;4929728;29;19986;-82
2023/11/14 09:50:55;;;;;;;;;;;;;;;;;;4913127;29;19977;-82
2023/11/14 09:53:23;;;;;;;;;;;;;;;;;;4930820;29;19926;-81
2023/11/14 09:55:53;;;;;;;;;;;;;;;;;;4947262;29;19915;-82
2023/11/14 09:58:20;;;;;;;;;;;;;;;;;;4929276;29;19961;-82
2023/11/14 10:00:46;;;;;;;;;;;;;;;;;;4929717;29;19939;-81
2023/11/14 10:03:12;;;;;;;;;;;;;;;;;;4926062;29;20397;-83
2023/11/14 10:05:37;;;;;;;;;;;;;;;;;;4925978;29;19958;-82
2023/11/14 10:08:07;;;;;;;;;;;;;;;;;;4926176;29;19974;-82
2023/11/14 10:10:34;;;;;;;;;;;;;;;;;;4927547;29;19915;-82
2023/11/14 10:13:01;;;;;;;;;;;;;;;;;;4944319;29;19915;-81
2023/11/14 10:15:30;;;;;;;;;;;;;;;;;;4928640;29;20370;-83
2023/11/14 10:17:59;;;;;;;;;;;;;;;;;;4927193;29;19930;-82
2023/11/14 10:20:26;;;;;;;;;;;;;;;;;;4933988;28;19918;-81
2023/11/14 10:22:51;;;;;;;;;;;;;;;;;;4965723;28;19914;-83
2023/11/14 10:25:22;;;;;;;;;;;;;;;;;;4965023;28;19918;-82
2023/11/14 10:27:50;;;;;;;;;;;;;;;;;;4965790;28;19934;-83
2023/11/14 10:30:16;;;;;;;;;;;;;;;;;;4968018;28;19960;-83
2023/11/14 10:32:41;;;;;;;;;;;;;;;;;;4968141;28;19953;-82
2023/11/14 10:35:07;;;;;;;;;;;;;;;;;;4966585;28;20063;-82
2023/11/14 10:37:34;;;;;;;;;;;;;;;;;;4968079;28;19920;-81
2023/11/14 10:40:06;;;;;;;;;;;;;;;;;;4984950;28;19957;-81
2023/11/14 10:42:33;;;;;;;;;;;;;;;;;;4967502;28;20009;-81
2023/11/14 10:44:59;;;;;;;;;;;;;;;;;;4966839;28;19918;-81
2023/11/14 10:47:25;;;;;;;;;;;;;;;;;;4982644;28;20021;-83
2023/11/14 10:49:52;;;;;;;;;;;;;;;;;;4981903;28;20436;-82
2023/11/14 10:52:20;;;;;;;;;;;;;;;;;;4965401;28;19914;-80
2023/11/14 10:54:48;;;;;;;;;;;;;;;;;;4966420;28;19965;-80
2023/11/14 10:57:19;;;;;;;;;;;;;;;;;;4996971;28;19945;-82
2023/11/14 10:59:59;;;;;;;;;;;;;;;;;;4982215;28;19914;-82
2023/11/14 11:02:50;;;;;;;;;;;;;;;;;;4981549;28;19914;-81
2023/11/14 11:05:17;;;;;;;;;;;;;;;;;;4979185;28;19924;-81
2023/11/14 11:07:43;;;;;;;;;;;;;;;;;;4963885;28;19918;-81
2023/11/14 11:10:12;;;;;;;;;;;;;;;;;;4981621;28;19914;-80
2023/11/14 11:12:44;;;;;;;;;;;;;;;;;;4963842;28;19910;-81
2023/11/14 11:15:16;;;;;;;;;;;;;;;;;;4966135;28;20278;-81
2023/11/14 11:17:48;;;;;;;;;;;;;;;;;;4963777;28;19918;-80
2023/11/14 11:20:18;;;;;;;;;;;;;;;;;;4975392;28;19950;-79
2023/11/14 11:22:46;;;;;;;;;;;;;;;;;;4959959;29;19926;-81
2023/11/14 11:25:14;;;;;;;;;;;;;;;;;;4960484;29;19914;-81
2023/11/14 11:27:45;;;;;;;;;;;;;;;;;;4959307;29;19934;-81
2023/11/14 11:30:17;;;;;;;;;;;;;;;;;;4943770;29;20408;-81
2023/11/14 11:32:48;;;;;;;;;;;;;;;;;;4961359;28;19914;-82
2023/11/14 11:35:16;;;;;;;;;;;;;;;;;;4960845;29;19918;-82
2023/11/14 11:37:43;;;;;;;;;;;;;;;;;;4944992;29;19993;-82
2023/11/14 11:40:12;;;;;;;;;;;;;;;;;;4944549;29;20380;-82
2023/11/14 11:42:43;;;;;;;;;;;;;;;;;;4960211;28;19914;-81
2023/11/14 11:45:09;;;;;;;;;;;;;;;;;;4945579;29;19938;-82
2023/11/14 11:47:36;;;;;;;;;;;;;;;;;;4961098;28;19965;-80
2023/11/14 11:50:02;;;;;;;;;;;;;;;;;;4960945;29;19966;-82
2023/11/14 11:52:30;;;;;;;;;;;;;;;;;;4960726;28;19969;-80
2023/11/14 11:55:03;;;;;;;;;;;;;;;;;;4959758;28;20017;-82
2023/11/14 11:57:31;;;;;;;;;;;;;;;;;;4960289;29;19918;-81
2023/11/14 11:59:59;;;;;;;;;;;;;;;;;;4959219;28;19995;-81
2023/11/14 12:02:36;;;;;;;;;;;;;;;;;;4959231;29;19918;-81
2023/11/14 12:05:02;;;;;;;;;;;;;;;;;;4958869;28;19934;-80
2023/11/14 12:07:36;;;;;;;;;;;;;;;;;;4944555;29;19957;-81
2023/11/14 12:10:05;;;;;;;;;;;;;;;;;;4961404;29;19956;-82
2023/11/14 12:12:35;;;;;;;;;;;;;;;;;;4942543;29;19969;-81
2023/11/14 12:15:07;;;;;;;;;;;;;;;;;;4960027;29;19918;-82
2023/11/14 12:17:35;;;;;;;;;;;;;;;;;;4951058;29;19918;-80
2023/11/14 12:20:09;;;;;;;;;;;;;;;;;;4966358;28;19927;-81
2023/11/14 12:22:40;;;;;;;;;;;;;;;;;;4960387;28;19915;-81
2023/11/14 12:25:29;;;;;;;;;;;;;;;;;;4953059;29;19914;-81
2023/11/14 12:27:57;;;;;;;;;;;;;;;;;;4951275;29;19914;-81
2023/11/14 12:30:27;;;;;;;;;;;;;;;;;;4967934;29;19922;-81
2023/11/14 12:32:53;;;;;;;;;;;;;;;;;;4951215;29;19914;-79
2023/11/14 12:35:19;;;;;;;;;;;;;;;;;;4948473;29;19999;-81
2023/11/14 12:37:45;;;;;;;;;;;;;;;;;;4964593;28;19974;-81
2023/11/14 12:40:12;;;;;;;;;;;;;;;;;;4950866;29;19914;-82
2023/11/14 12:42:38;;;;;;;;;;;;;;;;;;4952326;29;20350;-82
2023/11/14 12:45:07;;;;;;;;;;;;;;;;;;4952119;29;19922;-82
2023/11/14 12:47:33;;;;;;;;;;;;;;;;;;4952122;29;20017;-80
2023/11/14 12:50:07;;;;;;;;;;;;;;;;;;4970742;29;20008;-81
2023/11/14 12:52:34;;;;;;;;;;;;;;;;;;4956429;29;20369;-81
2023/11/14 12:55:01;;;;;;;;;;;;;;;;;;4958807;29;20006;-81
2023/11/14 12:57:29;;;;;;;;;;;;;;;;;;4962456;29;19975;-81
2023/11/14 12:59:56;;;;;;;;;;;;;;;;;;4962638;29;19914;-81
2023/11/14 13:02:21;;;;;;;;;;;;;;;;;;4956731;29;19918;-80
2023/11/14 13:04:47;;;;;;;;;;;;;;;;;;4958398;29;19915;-79
2023/11/14 13:07:14;;;;;;;;;;;;;;;;;;4957597;29;20321;-82
2023/11/14 13:10:01;;;;;;;;;;;;;;;;;;4957383;29;19910;-80
2023/11/14 13:12:40;;;;;;;;;;;;;;;;;;4953750;29;19914;-81
2023/11/14 13:15:53;;;;;;;;;;;;;;;;;;4968129;29;20065;-80
2023/11/14 13:18:20;;;;;;;;;;;;;;;;;;4954290;29;19986;-80
2023/11/14 13:20:50;;;;;;;;;;;;;;;;;;4977494;28;19929;-80
2023/11/14 13:23:17;;;;;;;;;;;;;;;;;;4988590;28;19914;-83
2023/11/14 13:25:46;;;;;;;;;;;;;;;;;;4972262;28;19914;-81
2023/11/14 13:28:14;;;;;;;;;;;;;;;;;;4971951;28;19921;-81
2023/11/14 13:30:42;;;;;;;;;;;;;;;;;;4979765;28;19946;-81
2023/11/14 13:33:15;;;;;;;;;;;;;;;;;;4981322;28;19977;-81
2023/11/14 13:35:41;;;;;;;;;;;;;;;;;;4981507;28;19922;-82
2023/11/14 13:38:11;;;;;;;;;;;;;;;;;;4965803;28;19937;-81
2023/11/14 13:40:40;;;;;;;;;;;;;;;;;;4967310;28;19977;-81
2023/11/14 13:43:09;;;;;;;;;;;;;;;;;;4968256;28;19910;-82
2023/11/14 13:45:37;;;;;;;;;;;;;;;;;;4965233;28;19929;-82
2023/11/14 13:48:04;;;;;;;;;;;;;;;;;;4980994;28;19918;-82
2023/11/14 13:50:30;;;;;;;;;;;;;;;;;;4964946;28;19914;-81
2023/11/14 13:52:55;;;;;;;;;;;;;;;;;;4981510;28;19925;-80
2023/11/14 13:55:22;;;;;;;;;;;;;;;;;;4964278;28;19921;-82
2023/11/14 13:57:49;;;;;;;;;;;;;;;;;;4964665;28;19957;-81
2023/11/14 14:00:18;;;;;;;;;;;;;;;;;;4963901;28;19914;-82
2023/11/14 14:02:47;;;;;;;;;;;;;;;;;;4964279;28;20381;-81
2023/11/14 14:05:26;;;;;;;;;;;;;;;;;;4979920;28;20377;-81
2023/11/14 14:07:59;;;;;;;;;;;;;;;;;;4980852;28;20017;-82
2023/11/14 14:10:43;;;;;;;;;;;;;;;;;;4965982;28;20288;-81
2023/11/14 14:13:20;;;;;;;;;;;;;;;;;;4966070;28;19964;-81
2023/11/14 14:15:53;;;;;;;;;;;;;;;;;;4981070;28;20010;-81
2023/11/14 14:18:30;;;;;;;;;;;;;;;;;;4986140;28;19945;-81
2023/11/14 14:21:02;;;;;;;;;;;;;;;;;;4970820;28;19990;-82
2023/11/14 14:23:31;;;;;;;;;;;;;;;;;;4988750;28;19954;-82
2023/11/14 14:26:02;;;;;;;;;;;;;;;;;;4971238;28;19942;-82
2023/11/14 14:28:35;;;;;;;;;;;;;;;;;;4984142;28;19945;-83
2023/11/14 14:31:08;;;;;;;;;;;;;;;;;;4969651;28;19914;-82
2023/11/14 14:33:40;;;;;;;;;;;;;;;;;;4986749;28;19942;-83
2023/11/14 14:36:20;;;;;;;;;;;;;;;;;;4983529;28;19921;-83
2023/11/14 14:39:00;;;;;;;;;;;;;;;;;;4970923;28;19953;-82
2023/11/14 14:41:28;;;;;;;;;;;;;;;;;;4985070;28;20038;-83
2023/11/14 14:44:12;;;;;;;;;;;;;;;;;;4984422;28;20445;-82
2023/11/14 14:46:58;;;;;;;;;;;;;;;;;;4981886;28;20417;-81
2023/11/14 14:49:38;;;;;;;;;;;;;;;;;;4980584;28;19911;-82
2023/11/14 14:52:05;;;;;;;;;;;;;;;;;;4963305;28;19914;-82
2023/11/14 14:54:32;;;;;;;;;;;;;;;;;;4965571;28;19957;-80
2023/11/14 14:57:08;;;;;;;;;;;;;;;;;;4982501;28;20073;-80
2023/11/14 14:59:37;;;;;;;;;;;;;;;;;;4964671;28;19920;-82
2023/11/14 15:02:10;;;;;;;;;;;;;;;;;;4963731;28;19914;-81
2023/11/14 15:04:50;;;;;;;;;;;;;;;;;;4995509;28;19914;-80
2023/11/14 15:07:29;;;;;;;;;;;;;;;;;;4964285;28;20048;-81
2023/11/14 15:10:04;;;;;;;;;;;;;;;;;;4978465;28;19986;-81
2023/11/14 15:12:34;;;;;;;;;;;;;;;;;;4980589;28;19920;-82
2023/11/14 15:15:07;;;;;;;;;;;;;;;;;;4962144;28;19980;-80
2023/11/14 15:17:56;;;;;;;;;;;;;;;;;;4994746;28;20353;-80
2023/11/14 15:20:49;;;;;;;;;;;;;;;;;;4973204;28;19937;-83
2023/11/14 15:23:22;;;;;;;;;;;;;;;;;;4960386;28;20313;-80
2023/11/14 15:26:00;;;;;;;;;;;;;;;;;;4960003;29;19914;-81
2023/11/14 15:28:49;;;;;;;;;;;;;;;;;;4958644;28;19953;-80
2023/11/14 15:31:15;;;;;;;;;;;;;;;;;;4958615;28;19910;-82
2023/11/14 15:34:03;;;;;;;;;;;;;;;;;;4958252;28;19914;-79
2023/11/14 15:36:46;;;;;;;;;;;;;;;;;;4959180;28;19983;-81
2023/11/14 15:39:16;;;;;;;;;;;;;;;;;;4948288;29;20388;-82
2023/11/14 15:41:48;;;;;;;;;;;;;;;;;;4950482;28;20445;-81
2023/11/14 15:44:19;;;;;;;;;;;;;;;;;;4959741;28;19914;-81
2023/11/14 15:46:56;;;;;;;;;;;;;;;;;;4960223;29;20369;-81
2023/11/14 15:49:33;;;;;;;;;;;;;;;;;;4960415;28;20396;-82
2023/11/14 15:52:00;;;;;;;;;;;;;;;;;;4944132;28;19915;-81
2023/11/14 15:54:33;;;;;;;;;;;;;;;;;;4943377;29;20321;-81
2023/11/14 15:57:03;;;;;;;;;;;;;;;;;;4929271;29;20337;-83
2023/11/14 15:59:30;;;;;;;;;;;;;;;;;;4942906;29;19915;-82
2023/11/14 16:02:05;;;;;;;;;;;;;;;;;;4944319;29;19925;-80
2023/11/14 16:04:32;;;;;;;;;;;;;;;;;;4955736;29;19914;-79
2023/11/14 16:07:01;;;;;;;;;;;;;;;;;;4958643;29;19977;-80
2023/11/14 16:09:29;;;;;;;;;;;;;;;;;;4943582;29;19914;-81
2023/11/14 16:12:01;;;;;;;;;;;;;;;;;;4959426;29;20274;-82
2023/11/14 16:14:28;;;;;;;;;;;;;;;;;;4943537;29;19936;-81
2023/11/14 16:17:08;;;;;;;;;;;;;;;;;;4945909;29;19978;-79
2023/11/14 16:19:36;;;;;;;;;;;;;;;;;;4959415;28;19919;-80
2023/11/14 16:22:23;;;;;;;;;;;;;;;;;;4976826;23;19973;-82
2023/11/14 16:24:51;;;;;;;;;;;;;;;;;;4946228;28;20009;-81
2023/11/14 16:27:16;;;;;;;;;;;;;;;;;;4944742;28;19951;-81
2023/11/14 16:29:48;;;;;;;;;;;;;;;;;;4950818;28;19914;-81
2023/11/14 16:32:20;;;;;;;;;;;;;;;;;;4947738;29;19923;-82
2023/11/14 16:34:46;;;;;;;;;;;;;;;;;;4948625;29;20474;-82
2023/11/14 16:37:13;;;;;;;;;;;;;;;;;;4963146;29;19914;-81
2023/11/14 16:39:44;;;;;;;;;;;;;;;;;;4949198;29;19926;-82
2023/11/14 16:42:31;;;;;;;;;;;;;;;;;;4946634;29;20377;-82
2023/11/14 16:45:40;;;;;;;;;;;;;;;;;;4958498;28;19922;-83
2023/11/14 16:48:16;;;;;;;;;;;;;;;;;;4945526;29;19918;-82
2023/11/14 16:51:08;;;;;;;;;;;;;;;;;;4961031;29;19922;-81
2023/11/14 16:53:38;;;;;;;;;;;;;;;;;;4939014;29;19922;-83
2023/11/14 16:56:18;;;;;;;;;;;;;;;;;;4964943;28;19953;-82
2023/11/14 16:58:44;;;;;;;;;;;;;;;;;;4949283;29;19949;-82